MLD026 UGTB-LUKK
Flight info
| Callsign | MLD026 |
|---|---|
| Flight time | 2h 43m |
| Altitude | 32000 |
| Route | DF DCT BARUS DCT ROLIN UN644 KARDE/N0395F340 UM859 UDROS DCT LEMPA DCT RIPGA/N0394F350 DCT KODRU DCT LIPTA |
| Aircraft | T134/M-SDRWY/C |
Departure
| Time | 2026-04-24 09:29 |
|---|---|
| Airport | Tbilisi International Airport (UGTB) |
Arrival
| Time | 2026-04-24 12:13 |
|---|---|
| Airport | Chişinău International Airport (LUKK) |
| Time | Latitude | Longitude | Altitude | Speed | Heading |
|---|---|---|---|---|---|
| 2026-04-24 09:02 | 41.67211 | 44.95908 | 1576 ft | 0 kts | 313° |
| 2026-04-24 09:17 | 41.67213 | 44.95906 | 1578 ft | 1 kts | 313° |
| 2026-04-24 09:17 | 41.67220 | 44.95895 | 1578 ft | 0 kts | 309° |
| 2026-04-24 09:17 | 41.67220 | 44.95894 | 1578 ft | 0 kts | 310° |
| 2026-04-24 09:18 | 41.67223 | 44.95890 | 1578 ft | 1 kts | 310° |
| 2026-04-24 09:18 | 41.67234 | 44.95866 | 1578 ft | 5 kts | 292° |
| 2026-04-24 09:18 | 41.67236 | 44.95849 | 1577 ft | 7 kts | 269° |
| 2026-04-24 09:19 | 41.67231 | 44.95825 | 1576 ft | 10 kts | 242° |
| 2026-04-24 09:19 | 41.67151 | 44.95791 | 1570 ft | 15 kts | 143° |
| 2026-04-24 09:19 | 41.67107 | 44.95853 | 1569 ft | 16 kts | 130° |
| 2026-04-24 09:20 | 41.67088 | 44.95883 | 1569 ft | 16 kts | 129° |
| 2026-04-24 09:20 | 41.67009 | 44.96011 | 1569 ft | 17 kts | 130° |
| 2026-04-24 09:20 | 41.66954 | 44.96094 | 1567 ft | 18 kts | 132° |
| 2026-04-24 09:20 | 41.66900 | 44.96170 | 1566 ft | 20 kts | 134° |
| 2026-04-24 09:21 | 41.66825 | 44.96274 | 1565 ft | 18 kts | 134° |
| 2026-04-24 09:21 | 41.66739 | 44.96396 | 1564 ft | 18 kts | 137° |
| 2026-04-24 09:21 | 41.66605 | 44.96402 | 1555 ft | 23 kts | 193° |
| 2026-04-24 09:21 | 41.66432 | 44.96344 | 1544 ft | 27 kts | 198° |
| 2026-04-24 09:22 | 41.66259 | 44.96296 | 1533 ft | 19 kts | 177° |
| 2026-04-24 09:22 | 41.66127 | 44.96357 | 1526 ft | 20 kts | 136° |
| 2026-04-24 09:22 | 41.66021 | 44.96504 | 1520 ft | 20 kts | 135° |
| 2026-04-24 09:22 | 41.65977 | 44.96561 | 1515 ft | 5 kts | 135° |
| 2026-04-24 09:23 | 41.65919 | 44.96605 | 1509 ft | 13 kts | 172° |
| 2026-04-24 09:23 | 41.65850 | 44.96541 | 1505 ft | 10 kts | 257° |
| 2026-04-24 09:23 | 41.65855 | 44.96464 | 1508 ft | 7 kts | 297° |
| 2026-04-24 09:23 | 41.65875 | 44.96430 | 1509 ft | 0 kts | 313° |
| 2026-04-24 09:25 | 41.65918 | 44.96418 | 1512 ft | 14 kts | 14° |
| 2026-04-24 09:26 | 41.65950 | 44.96433 | 1515 ft | 0 kts | 21° |
| 2026-04-24 09:26 | 41.65953 | 44.96435 | 1515 ft | 2 kts | 22° |
| 2026-04-24 09:26 | 41.65974 | 44.96469 | 1517 ft | 9 kts | 75° |
| 2026-04-24 09:26 | 41.65940 | 44.96587 | 1511 ft | 10 kts | 133° |
| 2026-04-24 09:27 | 41.65894 | 44.96609 | 1506 ft | 11 kts | 191° |
| 2026-04-24 09:27 | 41.65871 | 44.96597 | 1505 ft | 12 kts | 216° |
| 2026-04-24 09:27 | 41.65851 | 44.96571 | 1504 ft | 12 kts | 236° |
| 2026-04-24 09:27 | 41.65846 | 44.96472 | 1507 ft | 9 kts | 303° |
| 2026-04-24 09:28 | 41.65858 | 44.96452 | 1508 ft | 0 kts | 314° |
| 2026-04-24 09:28 | 41.65990 | 44.96265 | 1518 ft | 58 kts | 323° |
| 2026-04-24 09:28 | 41.66437 | 44.95720 | 1530 ft | 115 kts | 317° |
| 2026-04-24 09:29 | 41.67139 | 44.94824 | 1585 ft | 155 kts | 317° |
| 2026-04-24 09:29 | 41.67919 | 44.93872 | 2088 ft | 159 kts | 317° |
| 2026-04-24 09:29 | 41.68710 | 44.92836 | 2714 ft | 161 kts | 313° |
| 2026-04-24 09:29 | 41.69590 | 44.91671 | 2872 ft | 193 kts | 315° |
| 2026-04-24 09:30 | 41.70552 | 44.90392 | 3451 ft | 203 kts | 314° |
| 2026-04-24 09:30 | 41.71741 | 44.88291 | 3808 ft | 225 kts | 301° |
| 2026-04-24 09:30 | 41.72262 | 44.87011 | 3832 ft | 241 kts | 300° |
| 2026-04-24 09:30 | 41.73134 | 44.85049 | 4150 ft | 251 kts | 303° |
| 2026-04-24 09:31 | 41.74085 | 44.83049 | 4647 ft | 254 kts | 308° |
| 2026-04-24 09:31 | 41.75281 | 44.81312 | 5132 ft | 257 kts | 312° |
| 2026-04-24 09:31 | 41.76470 | 44.79538 | 5603 ft | 260 kts | 313° |
| 2026-04-24 09:31 | 41.77701 | 44.77755 | 6026 ft | 264 kts | 306° |
| 2026-04-24 09:32 | 41.78853 | 44.75803 | 6470 ft | 270 kts | 313° |
| 2026-04-24 09:32 | 41.80136 | 44.73970 | 6894 ft | 274 kts | 306° |
| 2026-04-24 09:32 | 41.81326 | 44.71972 | 7306 ft | 278 kts | 312° |
| 2026-04-24 09:32 | 41.82657 | 44.70083 | 7741 ft | 280 kts | 309° |
| 2026-04-24 09:33 | 41.83852 | 44.68029 | 8140 ft | 282 kts | 307° |
| 2026-04-24 09:33 | 41.85193 | 44.66110 | 8541 ft | 284 kts | 312° |
| 2026-04-24 09:33 | 41.86414 | 44.64037 | 8975 ft | 282 kts | 304° |
| 2026-04-24 09:33 | 41.87523 | 44.61893 | 9398 ft | 281 kts | 302° |
| 2026-04-24 09:34 | 41.88642 | 44.59716 | 9653 ft | 285 kts | 298° |
| 2026-04-24 09:34 | 41.89280 | 44.57225 | 9830 ft | 284 kts | 284° |
| 2026-04-24 09:34 | 41.89616 | 44.54598 | 9893 ft | 286 kts | 277° |
| 2026-04-24 09:34 | 41.89981 | 44.51963 | 9884 ft | 290 kts | 282° |
| 2026-04-24 09:35 | 41.90228 | 44.49267 | 9839 ft | 290 kts | 276° |
| 2026-04-24 09:35 | 41.90393 | 44.46592 | 9746 ft | 291 kts | 274° |
| 2026-04-24 09:35 | 41.90456 | 44.43870 | 9721 ft | 287 kts | 274° |
| 2026-04-24 09:35 | 41.90535 | 44.41215 | 9749 ft | 284 kts | 271° |
| 2026-04-24 09:36 | 41.90629 | 44.38625 | 9905 ft | 276 kts | 271° |
| 2026-04-24 09:36 | 41.90671 | 44.36077 | 10456 ft | 271 kts | 271° |
| 2026-04-24 09:36 | 41.90752 | 44.33536 | 10733 ft | 284 kts | 270° |
| 2026-04-24 09:36 | 41.90797 | 44.30777 | 10744 ft | 304 kts | 272° |
| 2026-04-24 09:37 | 41.90886 | 44.27908 | 10777 ft | 320 kts | 268° |
| 2026-04-24 09:37 | 41.90781 | 44.24855 | 10965 ft | 331 kts | 268° |
| 2026-04-24 09:37 | 41.90823 | 44.21771 | 11245 ft | 338 kts | 268° |
| 2026-04-24 09:37 | 41.90699 | 44.18615 | 11722 ft | 338 kts | 266° |
| 2026-04-24 09:38 | 41.90777 | 44.15459 | 12263 ft | 338 kts | 269° |
| 2026-04-24 09:38 | 41.90687 | 44.12342 | 12629 ft | 341 kts | 265° |
| 2026-04-24 09:38 | 41.90608 | 44.09130 | 12980 ft | 344 kts | 265° |
| 2026-04-24 09:38 | 41.90641 | 44.05935 | 13294 ft | 347 kts | 270° |
| 2026-04-24 09:39 | 41.90628 | 44.02713 | 13621 ft | 345 kts | 263° |
| 2026-04-24 09:39 | 41.90516 | 43.99519 | 14108 ft | 341 kts | 265° |
| 2026-04-24 09:39 | 41.90509 | 43.96383 | 14556 ft | 338 kts | 266° |
| 2026-04-24 09:39 | 41.90413 | 43.93272 | 15287 ft | 336 kts | 266° |
| 2026-04-24 09:40 | 41.90492 | 43.90163 | 15957 ft | 337 kts | 267° |
| 2026-04-24 09:40 | 41.90370 | 43.87062 | 16538 ft | 336 kts | 265° |
| 2026-04-24 09:40 | 41.90471 | 43.83855 | 16929 ft | 341 kts | 267° |
| 2026-04-24 09:40 | 41.90374 | 43.80712 | 17210 ft | 343 kts | 264° |
| 2026-04-24 09:41 | 41.90332 | 43.77513 | 17507 ft | 347 kts | 268° |
| 2026-04-24 09:41 | 41.90324 | 43.74238 | 17829 ft | 348 kts | 263° |
| 2026-04-24 09:41 | 41.90264 | 43.71006 | 18174 ft | 351 kts | 268° |
| 2026-04-24 09:41 | 41.90292 | 43.67712 | 18528 ft | 350 kts | 264° |
| 2026-04-24 09:42 | 41.90211 | 43.64476 | 18882 ft | 352 kts | 267° |
| 2026-04-24 09:42 | 41.90252 | 43.61187 | 19229 ft | 352 kts | 264° |
| 2026-04-24 09:42 | 41.90161 | 43.57917 | 19560 ft | 353 kts | 267° |
| 2026-04-24 09:42 | 41.90216 | 43.54648 | 19869 ft | 351 kts | 265° |
| 2026-04-24 09:43 | 41.90120 | 43.51369 | 20173 ft | 352 kts | 266° |
| 2026-04-24 09:43 | 41.90178 | 43.48077 | 20458 ft | 353 kts | 265° |
| 2026-04-24 09:43 | 41.90085 | 43.44837 | 20706 ft | 354 kts | 265° |
| 2026-04-24 09:43 | 41.90142 | 43.41512 | 20929 ft | 356 kts | 266° |
| 2026-04-24 09:44 | 41.90056 | 43.38212 | 21219 ft | 357 kts | 265° |
| 2026-04-24 09:44 | 41.90103 | 43.34870 | 21559 ft | 360 kts | 266° |
| 2026-04-24 09:44 | 41.90027 | 43.31505 | 21923 ft | 360 kts | 264° |
| 2026-04-24 09:44 | 41.90068 | 43.28152 | 22265 ft | 363 kts | 267° |
| 2026-04-24 09:45 | 41.90007 | 43.24768 | 22512 ft | 362 kts | 264° |
| 2026-04-24 09:45 | 41.90033 | 43.21384 | 22767 ft | 366 kts | 268° |
| 2026-04-24 09:45 | 41.89992 | 43.17996 | 22985 ft | 365 kts | 264° |
| 2026-04-24 09:45 | 41.89996 | 43.14582 | 23157 ft | 370 kts | 268° |
| 2026-04-24 09:46 | 41.89977 | 43.11163 | 23329 ft | 369 kts | 264° |
| 2026-04-24 09:46 | 41.89959 | 43.07708 | 23500 ft | 373 kts | 268° |
| 2026-04-24 09:46 | 41.89958 | 43.04208 | 23676 ft | 372 kts | 264° |
| 2026-04-24 09:46 | 41.89917 | 43.00706 | 23850 ft | 375 kts | 268° |
| 2026-04-24 09:47 | 41.89928 | 42.97250 | 24019 ft | 374 kts | 264° |
| 2026-04-24 09:47 | 41.89843 | 42.93751 | 24187 ft | 375 kts | 265° |
| 2026-04-24 09:47 | 41.89772 | 42.90219 | 24355 ft | 375 kts | 265° |
| 2026-04-24 09:47 | 41.89692 | 42.86762 | 24518 ft | 376 kts | 264° |
| 2026-04-24 09:48 | 41.89498 | 42.83268 | 24684 ft | 374 kts | 262° |
| 2026-04-24 09:48 | 41.89493 | 42.79736 | 24848 ft | 378 kts | 269° |
| 2026-04-24 09:48 | 41.89584 | 42.76231 | 25019 ft | 377 kts | 268° |
| 2026-04-24 09:48 | 41.89682 | 42.72731 | 25228 ft | 378 kts | 268° |
| 2026-04-24 09:49 | 41.89781 | 42.69230 | 25437 ft | 378 kts | 269° |
| 2026-04-24 09:49 | 41.90045 | 42.65696 | 25653 ft | 380 kts | 271° |
| 2026-04-24 09:49 | 41.90307 | 42.62171 | 25868 ft | 380 kts | 271° |
| 2026-04-24 09:49 | 41.90532 | 42.58651 | 26078 ft | 377 kts | 267° |
| 2026-04-24 09:50 | 41.90470 | 42.55155 | 26293 ft | 376 kts | 266° |
| 2026-04-24 09:50 | 41.90435 | 42.51617 | 26508 ft | 376 kts | 265° |
| 2026-04-24 09:50 | 41.90385 | 42.48135 | 26718 ft | 376 kts | 266° |
| 2026-04-24 09:50 | 41.90342 | 42.44645 | 26929 ft | 375 kts | 266° |
| 2026-04-24 09:51 | 41.90295 | 42.41128 | 27141 ft | 375 kts | 266° |
| 2026-04-24 09:51 | 41.90221 | 42.37668 | 27349 ft | 374 kts | 263° |
| 2026-04-24 09:51 | 41.89946 | 42.34232 | 27562 ft | 373 kts | 261° |
| 2026-04-24 09:51 | 41.89681 | 42.30742 | 27794 ft | 373 kts | 261° |
| 2026-04-24 09:52 | 41.89408 | 42.27288 | 28024 ft | 372 kts | 261° |
| 2026-04-24 09:52 | 41.89140 | 42.23846 | 28253 ft | 372 kts | 261° |
| 2026-04-24 09:52 | 41.88869 | 42.20388 | 28483 ft | 371 kts | 261° |
| 2026-04-24 09:52 | 41.88602 | 42.16975 | 28659 ft | 370 kts | 261° |
| 2026-04-24 09:53 | 41.88332 | 42.13546 | 28820 ft | 369 kts | 261° |
| 2026-04-24 09:53 | 41.88065 | 42.10150 | 28977 ft | 369 kts | 261° |
| 2026-04-24 09:53 | 41.87797 | 42.06729 | 29134 ft | 368 kts | 261° |
| 2026-04-24 09:53 | 41.87528 | 42.03302 | 29291 ft | 368 kts | 261° |
| 2026-04-24 09:54 | 41.87263 | 41.99922 | 29430 ft | 368 kts | 262° |
| 2026-04-24 09:54 | 41.87130 | 41.96479 | 29561 ft | 369 kts | 264° |
| 2026-04-24 09:54 | 41.86928 | 41.93093 | 29690 ft | 368 kts | 262° |
| 2026-04-24 09:54 | 41.86716 | 41.89655 | 29820 ft | 368 kts | 262° |
| 2026-04-24 09:55 | 41.86500 | 41.86267 | 29946 ft | 368 kts | 262° |
| 2026-04-24 09:55 | 41.86283 | 41.82825 | 30082 ft | 368 kts | 262° |
| 2026-04-24 09:55 | 41.86068 | 41.79456 | 30213 ft | 368 kts | 262° |
| 2026-04-24 09:55 | 41.85851 | 41.76047 | 30344 ft | 368 kts | 262° |
| 2026-04-24 09:56 | 41.85632 | 41.72621 | 30472 ft | 368 kts | 262° |
| 2026-04-24 09:56 | 41.85412 | 41.69181 | 30598 ft | 368 kts | 263° |
| 2026-04-24 09:56 | 41.85194 | 41.65772 | 30721 ft | 369 kts | 263° |
| 2026-04-24 09:56 | 41.84977 | 41.62373 | 30843 ft | 369 kts | 263° |
| 2026-04-24 09:57 | 41.84758 | 41.58939 | 30956 ft | 369 kts | 263° |
| 2026-04-24 09:57 | 41.84542 | 41.55545 | 31062 ft | 369 kts | 263° |
| 2026-04-24 09:57 | 41.84393 | 41.52132 | 31165 ft | 370 kts | 263° |
| 2026-04-24 09:57 | 41.84174 | 41.48675 | 31269 ft | 370 kts | 263° |
| 2026-04-24 09:58 | 41.83754 | 41.41819 | 31461 ft | 371 kts | 263° |
| 2026-04-24 09:58 | 41.83337 | 41.34962 | 31641 ft | 373 kts | 263° |
| 2026-04-24 09:59 | 41.83182 | 41.31507 | 31750 ft | 373 kts | 262° |
| 2026-04-24 09:59 | 41.82956 | 41.28034 | 31860 ft | 374 kts | 262° |
| 2026-04-24 09:59 | 41.82742 | 41.24546 | 31967 ft | 374 kts | 262° |
| 2026-04-24 09:59 | 41.82550 | 41.21095 | 32070 ft | 376 kts | 264° |
| 2026-04-24 10:00 | 41.82383 | 41.17588 | 32176 ft | 375 kts | 262° |
| 2026-04-24 10:00 | 41.82163 | 41.14108 | 32281 ft | 376 kts | 262° |
| 2026-04-24 10:00 | 41.81948 | 41.10632 | 32383 ft | 376 kts | 262° |
| 2026-04-24 10:00 | 41.81782 | 41.07129 | 32483 ft | 377 kts | 264° |
| 2026-04-24 10:01 | 41.81405 | 41.00122 | 32675 ft | 377 kts | 262° |
| 2026-04-24 10:01 | 41.80985 | 40.93145 | 32857 ft | 377 kts | 262° |
| 2026-04-24 10:02 | 41.80564 | 40.86151 | 33027 ft | 378 kts | 262° |
| 2026-04-24 10:02 | 41.80143 | 40.79197 | 33187 ft | 378 kts | 262° |
| 2026-04-24 10:03 | 41.79663 | 40.72210 | 33334 ft | 378 kts | 261° |
| 2026-04-24 10:03 | 41.79069 | 40.65216 | 33468 ft | 379 kts | 266° |
| 2026-04-24 10:04 | 41.78889 | 40.58207 | 33592 ft | 379 kts | 264° |
| 2026-04-24 10:04 | 41.78718 | 40.51152 | 33709 ft | 380 kts | 265° |
| 2026-04-24 10:05 | 41.78825 | 40.44080 | 33813 ft | 381 kts | 266° |
| 2026-04-24 10:05 | 41.78892 | 40.36986 | 33910 ft | 381 kts | 266° |
| 2026-04-24 10:06 | 41.78984 | 40.26377 | 34039 ft | 383 kts | 267° |
| 2026-04-24 10:07 | 41.79149 | 40.19380 | 34049 ft | 377 kts | 267° |
| 2026-04-24 10:07 | 41.79180 | 40.12323 | 34047 ft | 380 kts | 263° |
| 2026-04-24 10:07 | 41.79308 | 40.08769 | 34060 ft | 386 kts | 274° |
| 2026-04-24 10:08 | 41.79705 | 40.05216 | 34039 ft | 389 kts | 275° |
| 2026-04-24 10:08 | 41.80740 | 39.98138 | 34045 ft | 388 kts | 275° |
| 2026-04-24 10:09 | 41.81531 | 39.91023 | 34047 ft | 384 kts | 270° |
| 2026-04-24 10:09 | 41.82055 | 39.83944 | 34039 ft | 384 kts | 270° |
| 2026-04-24 10:10 | 41.82581 | 39.76822 | 34040 ft | 385 kts | 270° |
| 2026-04-24 10:10 | 41.83103 | 39.69725 | 34037 ft | 385 kts | 270° |
| 2026-04-24 10:11 | 41.83419 | 39.62586 | 34037 ft | 383 kts | 268° |
| 2026-04-24 10:11 | 41.83683 | 39.55484 | 34037 ft | 383 kts | 266° |
| 2026-04-24 10:12 | 41.83833 | 39.48380 | 34022 ft | 386 kts | 271° |
| 2026-04-24 10:12 | 41.83857 | 39.44841 | 34027 ft | 379 kts | 259° |
| 2026-04-24 10:12 | 41.83486 | 39.41324 | 34019 ft | 381 kts | 260° |
| 2026-04-24 10:13 | 41.82838 | 39.34273 | 34024 ft | 382 kts | 260° |
| 2026-04-24 10:13 | 41.82260 | 39.27223 | 34033 ft | 382 kts | 261° |
| 2026-04-24 10:14 | 41.81760 | 39.20137 | 34033 ft | 383 kts | 262° |
| 2026-04-24 10:14 | 41.81334 | 39.13029 | 34031 ft | 385 kts | 262° |
| 2026-04-24 10:15 | 41.80981 | 39.05932 | 34029 ft | 386 kts | 263° |
| 2026-04-24 10:15 | 41.80696 | 38.98744 | 34027 ft | 387 kts | 264° |
| 2026-04-24 10:16 | 41.80482 | 38.91562 | 34025 ft | 389 kts | 264° |
| 2026-04-24 10:16 | 41.80335 | 38.84344 | 34023 ft | 390 kts | 265° |
| 2026-04-24 10:17 | 41.80252 | 38.77050 | 34021 ft | 392 kts | 266° |
| 2026-04-24 10:17 | 41.80232 | 38.69745 | 34019 ft | 393 kts | 266° |
| 2026-04-24 10:18 | 41.80263 | 38.62458 | 34016 ft | 394 kts | 267° |
| 2026-04-24 10:18 | 41.80296 | 38.55102 | 34014 ft | 395 kts | 267° |
| 2026-04-24 10:19 | 41.80497 | 38.47754 | 34019 ft | 399 kts | 271° |
| 2026-04-24 10:19 | 41.80775 | 38.40378 | 34018 ft | 400 kts | 272° |
| 2026-04-24 10:20 | 41.81057 | 38.33005 | 34021 ft | 401 kts | 271° |
| 2026-04-24 10:20 | 41.81348 | 38.25596 | 34020 ft | 402 kts | 272° |
| 2026-04-24 10:21 | 41.81628 | 38.18166 | 34028 ft | 400 kts | 268° |
| 2026-04-24 10:21 | 41.81997 | 38.10707 | 34025 ft | 400 kts | 266° |
| 2026-04-24 10:22 | 41.82337 | 38.03245 | 34019 ft | 401 kts | 266° |
| 2026-04-24 10:22 | 41.82681 | 37.95800 | 34006 ft | 401 kts | 267° |
| 2026-04-24 10:23 | 41.83026 | 37.88306 | 33996 ft | 402 kts | 268° |
| 2026-04-24 10:23 | 41.83367 | 37.80862 | 33997 ft | 403 kts | 269° |
| 2026-04-24 10:24 | 41.83697 | 37.73408 | 34001 ft | 404 kts | 271° |
| 2026-04-24 10:24 | 41.84025 | 37.65923 | 34001 ft | 404 kts | 271° |
| 2026-04-24 10:25 | 41.84352 | 37.58473 | 33996 ft | 404 kts | 272° |
| 2026-04-24 10:25 | 41.84683 | 37.50991 | 33989 ft | 404 kts | 272° |
| 2026-04-24 10:26 | 41.85020 | 37.43511 | 33985 ft | 403 kts | 272° |
| 2026-04-24 10:26 | 41.85367 | 37.36101 | 33987 ft | 402 kts | 270° |
| 2026-04-24 10:27 | 41.85735 | 37.28632 | 33997 ft | 400 kts | 268° |
| 2026-04-24 10:27 | 41.86203 | 37.21188 | 33989 ft | 402 kts | 271° |
| 2026-04-24 10:28 | 41.86709 | 37.13721 | 33985 ft | 402 kts | 271° |
| 2026-04-24 10:28 | 41.87210 | 37.06273 | 33979 ft | 403 kts | 271° |
| 2026-04-24 10:29 | 41.87711 | 36.98806 | 33973 ft | 403 kts | 271° |
| 2026-04-24 10:29 | 41.88856 | 36.91466 | 33974 ft | 408 kts | 277° |
| 2026-04-24 10:30 | 41.89999 | 36.84048 | 33981 ft | 409 kts | 279° |
| 2026-04-24 10:30 | 41.91379 | 36.76636 | 33967 ft | 409 kts | 279° |
| 2026-04-24 10:31 | 41.92619 | 36.69236 | 33972 ft | 410 kts | 280° |
| 2026-04-24 10:31 | 41.93868 | 36.61803 | 33969 ft | 409 kts | 278° |
| 2026-04-24 10:32 | 41.95237 | 36.54406 | 33965 ft | 412 kts | 280° |
| 2026-04-24 10:32 | 41.96487 | 36.46945 | 33968 ft | 412 kts | 281° |
| 2026-04-24 10:33 | 41.97863 | 36.39492 | 33960 ft | 411 kts | 278° |
| 2026-04-24 10:33 | 41.99141 | 36.32005 | 33970 ft | 413 kts | 279° |
| 2026-04-24 10:34 | 42.00481 | 36.24479 | 33965 ft | 412 kts | 276° |
| 2026-04-24 10:34 | 42.01806 | 36.17006 | 33970 ft | 415 kts | 280° |
| 2026-04-24 10:35 | 42.03153 | 36.09463 | 33972 ft | 414 kts | 277° |
| 2026-04-24 10:35 | 42.04499 | 36.01912 | 33969 ft | 417 kts | 280° |
| 2026-04-24 10:36 | 42.05892 | 35.94410 | 33965 ft | 417 kts | 279° |
| 2026-04-24 10:36 | 42.07245 | 35.86856 | 33973 ft | 416 kts | 280° |
| 2026-04-24 10:37 | 42.08649 | 35.79288 | 33979 ft | 417 kts | 280° |
| 2026-04-24 10:37 | 42.10044 | 35.71781 | 33977 ft | 417 kts | 280° |
| 2026-04-24 10:38 | 42.11445 | 35.64243 | 33971 ft | 416 kts | 281° |
| 2026-04-24 10:38 | 42.12844 | 35.56697 | 33971 ft | 416 kts | 281° |
| 2026-04-24 10:39 | 42.14240 | 35.49168 | 33972 ft | 416 kts | 281° |
| 2026-04-24 10:39 | 42.15640 | 35.41603 | 33973 ft | 416 kts | 281° |
| 2026-04-24 10:40 | 42.17215 | 35.34137 | 33977 ft | 420 kts | 289° |
| 2026-04-24 10:40 | 42.19181 | 35.26785 | 33985 ft | 418 kts | 284° |
| 2026-04-24 10:41 | 42.20747 | 35.19266 | 33989 ft | 415 kts | 279° |
| 2026-04-24 10:41 | 42.22031 | 35.11722 | 33983 ft | 415 kts | 280° |
| 2026-04-24 10:42 | 42.23121 | 35.04118 | 33986 ft | 414 kts | 276° |
| 2026-04-24 10:42 | 42.24029 | 34.96482 | 33983 ft | 413 kts | 276° |
| 2026-04-24 10:43 | 42.24887 | 34.88810 | 33982 ft | 413 kts | 276° |
| 2026-04-24 10:43 | 42.25445 | 34.81130 | 33982 ft | 412 kts | 270° |
| 2026-04-24 10:43 | 42.25815 | 34.77353 | 33993 ft | 415 kts | 281° |
| 2026-04-24 10:44 | 42.26476 | 34.73539 | 33977 ft | 416 kts | 279° |
| 2026-04-24 10:44 | 42.27477 | 34.65921 | 33980 ft | 415 kts | 280° |
| 2026-04-24 10:45 | 42.28431 | 34.58232 | 33977 ft | 415 kts | 277° |
| 2026-04-24 10:45 | 42.29335 | 34.50603 | 33975 ft | 415 kts | 277° |
| 2026-04-24 10:46 | 42.30317 | 34.42916 | 33976 ft | 416 kts | 278° |
| 2026-04-24 10:46 | 42.31225 | 34.35194 | 33973 ft | 416 kts | 277° |
| 2026-04-24 10:47 | 42.32149 | 34.27492 | 33977 ft | 418 kts | 279° |
| 2026-04-24 10:47 | 42.33122 | 34.19775 | 33978 ft | 418 kts | 277° |
| 2026-04-24 10:48 | 42.34037 | 34.12038 | 33975 ft | 418 kts | 278° |
| 2026-04-24 10:48 | 42.35027 | 34.04333 | 33974 ft | 418 kts | 277° |
| 2026-04-24 10:49 | 42.35968 | 33.96635 | 33969 ft | 419 kts | 280° |
| 2026-04-24 10:49 | 42.36946 | 33.88854 | 33969 ft | 419 kts | 277° |
| 2026-04-24 10:50 | 42.37967 | 33.81159 | 33968 ft | 419 kts | 277° |
| 2026-04-24 10:50 | 42.38873 | 33.73367 | 33960 ft | 419 kts | 278° |
| 2026-04-24 10:51 | 42.39888 | 33.65625 | 33953 ft | 419 kts | 278° |
| 2026-04-24 10:51 | 42.40922 | 33.57912 | 33941 ft | 419 kts | 278° |
| 2026-04-24 10:52 | 42.41837 | 33.50168 | 33928 ft | 419 kts | 279° |
| 2026-04-24 10:52 | 42.42859 | 33.42422 | 33929 ft | 419 kts | 279° |
| 2026-04-24 10:53 | 42.43895 | 33.34721 | 33930 ft | 419 kts | 280° |
| 2026-04-24 10:53 | 42.44702 | 33.26937 | 33937 ft | 418 kts | 276° |
| 2026-04-24 10:54 | 42.45483 | 33.19194 | 33941 ft | 418 kts | 276° |
| 2026-04-24 10:54 | 42.46014 | 33.11390 | 33944 ft | 418 kts | 275° |
| 2026-04-24 10:55 | 42.47145 | 33.03638 | 33948 ft | 420 kts | 281° |
| 2026-04-24 10:55 | 42.48320 | 32.95959 | 33943 ft | 420 kts | 279° |
| 2026-04-24 10:56 | 42.49296 | 32.88167 | 33951 ft | 420 kts | 279° |
| 2026-04-24 10:56 | 42.50233 | 32.80393 | 33953 ft | 420 kts | 280° |
| 2026-04-24 10:57 | 42.50968 | 32.73882 | 33948 ft | 420 kts | 281° |
| 2026-04-24 10:57 | 42.52043 | 32.65159 | 34038 ft | 420 kts | 281° |
| 2026-04-24 10:58 | 42.52984 | 32.57350 | 34114 ft | 421 kts | 281° |
| 2026-04-24 10:58 | 42.53929 | 32.49544 | 34054 ft | 423 kts | 281° |
| 2026-04-24 10:59 | 42.54889 | 32.41685 | 33981 ft | 422 kts | 281° |
| 2026-04-24 10:59 | 42.55848 | 32.33876 | 33975 ft | 422 kts | 281° |
| 2026-04-24 11:00 | 42.56815 | 32.26040 | 33984 ft | 423 kts | 280° |
| 2026-04-24 11:00 | 42.57792 | 32.18195 | 33986 ft | 423 kts | 280° |
| 2026-04-24 11:01 | 42.58775 | 32.10344 | 33988 ft | 423 kts | 280° |
| 2026-04-24 11:01 | 42.59765 | 32.02477 | 33990 ft | 423 kts | 280° |
| 2026-04-24 11:02 | 42.60761 | 31.94616 | 33993 ft | 424 kts | 279° |
| 2026-04-24 11:02 | 42.61758 | 31.86771 | 33995 ft | 425 kts | 279° |
| 2026-04-24 11:03 | 42.62772 | 31.78857 | 33994 ft | 425 kts | 279° |
| 2026-04-24 11:03 | 42.63792 | 31.70984 | 33994 ft | 425 kts | 279° |
| 2026-04-24 11:04 | 42.64816 | 31.63113 | 33995 ft | 425 kts | 279° |
| 2026-04-24 11:04 | 42.65848 | 31.55216 | 33999 ft | 425 kts | 279° |
| 2026-04-24 11:05 | 42.66887 | 31.47358 | 34002 ft | 425 kts | 278° |
| 2026-04-24 11:05 | 42.67937 | 31.39461 | 33999 ft | 425 kts | 278° |
| 2026-04-24 11:06 | 42.68995 | 31.31568 | 34000 ft | 426 kts | 278° |
| 2026-04-24 11:06 | 42.70057 | 31.23700 | 33990 ft | 427 kts | 278° |
| 2026-04-24 11:07 | 42.71595 | 31.11797 | 33983 ft | 426 kts | 282° |
| 2026-04-24 11:07 | 42.72651 | 31.03897 | 33985 ft | 427 kts | 282° |
| 2026-04-24 11:08 | 42.73725 | 30.96015 | 33986 ft | 427 kts | 281° |
| 2026-04-24 11:08 | 42.74822 | 30.88106 | 33983 ft | 427 kts | 279° |
| 2026-04-24 11:09 | 42.75943 | 30.80159 | 33978 ft | 428 kts | 279° |
| 2026-04-24 11:09 | 42.77045 | 30.72263 | 33979 ft | 428 kts | 282° |
| 2026-04-24 11:10 | 42.78127 | 30.64339 | 33980 ft | 428 kts | 283° |
| 2026-04-24 11:10 | 42.79208 | 30.56360 | 33979 ft | 428 kts | 283° |
| 2026-04-24 11:11 | 42.80287 | 30.48435 | 33978 ft | 429 kts | 282° |
| 2026-04-24 11:11 | 42.81476 | 30.40469 | 33975 ft | 429 kts | 283° |
| 2026-04-24 11:12 | 42.82560 | 30.32524 | 33979 ft | 429 kts | 282° |
| 2026-04-24 11:12 | 42.83671 | 30.24610 | 33977 ft | 429 kts | 280° |
| 2026-04-24 11:13 | 42.84826 | 30.16635 | 33976 ft | 429 kts | 283° |
| 2026-04-24 11:13 | 42.85925 | 30.08667 | 33977 ft | 429 kts | 282° |
| 2026-04-24 11:14 | 42.87117 | 30.00676 | 33970 ft | 429 kts | 283° |
| 2026-04-24 11:14 | 42.88248 | 29.92720 | 33964 ft | 430 kts | 281° |
| 2026-04-24 11:15 | 42.89402 | 29.84806 | 33967 ft | 431 kts | 283° |
| 2026-04-24 11:15 | 42.90588 | 29.76788 | 33968 ft | 433 kts | 284° |
| 2026-04-24 11:16 | 42.91777 | 29.68763 | 33961 ft | 433 kts | 284° |
| 2026-04-24 11:16 | 42.92979 | 29.60692 | 33958 ft | 433 kts | 284° |
| 2026-04-24 11:17 | 42.94170 | 29.52679 | 33957 ft | 433 kts | 284° |
| 2026-04-24 11:17 | 42.95719 | 29.44826 | 33965 ft | 428 kts | 299° |
| 2026-04-24 11:18 | 42.97345 | 29.41459 | 33967 ft | 427 kts | 312° |
| 2026-04-24 11:18 | 42.99524 | 29.38710 | 33969 ft | 427 kts | 324° |
| 2026-04-24 11:18 | 43.04479 | 29.34270 | 33956 ft | 427 kts | 326° |
| 2026-04-24 11:19 | 43.09436 | 29.29893 | 33952 ft | 426 kts | 328° |
| 2026-04-24 11:19 | 43.14908 | 29.26897 | 33954 ft | 428 kts | 348° |
| 2026-04-24 11:20 | 43.20852 | 29.26137 | 33962 ft | 429 kts | 353° |
| 2026-04-24 11:20 | 43.26813 | 29.25530 | 33956 ft | 428 kts | 353° |
| 2026-04-24 11:21 | 43.32726 | 29.24883 | 33947 ft | 426 kts | 350° |
| 2026-04-24 11:21 | 43.35561 | 29.23848 | 33965 ft | 423 kts | 336° |
| 2026-04-24 11:21 | 43.38131 | 29.21859 | 33962 ft | 423 kts | 324° |
| 2026-04-24 11:22 | 43.42906 | 29.17166 | 33941 ft | 423 kts | 326° |
| 2026-04-24 11:22 | 43.45508 | 29.15333 | 33955 ft | 422 kts | 340° |
| 2026-04-24 11:22 | 43.48363 | 29.14468 | 33957 ft | 425 kts | 352° |
| 2026-04-24 11:23 | 43.54274 | 29.13722 | 33941 ft | 425 kts | 353° |
| 2026-04-24 11:23 | 43.60141 | 29.13001 | 33938 ft | 424 kts | 353° |
| 2026-04-24 11:24 | 43.66013 | 29.12255 | 33936 ft | 424 kts | 353° |
| 2026-04-24 11:24 | 43.71870 | 29.11491 | 33935 ft | 423 kts | 353° |
| 2026-04-24 11:25 | 43.77718 | 29.10709 | 33935 ft | 423 kts | 353° |
| 2026-04-24 11:25 | 43.83580 | 29.09907 | 33935 ft | 422 kts | 353° |
| 2026-04-24 11:26 | 43.89393 | 29.09092 | 33933 ft | 422 kts | 352° |
| 2026-04-24 11:26 | 43.95230 | 29.08257 | 33933 ft | 422 kts | 352° |
| 2026-04-24 11:27 | 43.98079 | 29.07472 | 33934 ft | 419 kts | 340° |
| 2026-04-24 11:27 | 44.00793 | 29.05981 | 33934 ft | 421 kts | 338° |
| 2026-04-24 11:27 | 44.06206 | 29.02893 | 33932 ft | 420 kts | 337° |
| 2026-04-24 11:28 | 44.11578 | 28.99771 | 33937 ft | 417 kts | 337° |
| 2026-04-24 11:28 | 44.16879 | 28.96618 | 33938 ft | 413 kts | 336° |
| 2026-04-24 11:29 | 44.21993 | 28.93116 | 33938 ft | 412 kts | 334° |
| 2026-04-24 11:29 | 44.27076 | 28.89403 | 33938 ft | 412 kts | 333° |
| 2026-04-24 11:30 | 44.32032 | 28.85410 | 33940 ft | 413 kts | 330° |
| 2026-04-24 11:30 | 44.36898 | 28.81188 | 33935 ft | 413 kts | 330° |
| 2026-04-24 11:31 | 44.41730 | 28.76945 | 33931 ft | 413 kts | 328° |
| 2026-04-24 11:31 | 44.46423 | 28.72278 | 33927 ft | 413 kts | 327° |
| 2026-04-24 11:32 | 44.51048 | 28.67554 | 33922 ft | 414 kts | 324° |
| 2026-04-24 11:32 | 44.55550 | 28.62489 | 33922 ft | 413 kts | 327° |
| 2026-04-24 11:33 | 44.60033 | 28.57501 | 33924 ft | 414 kts | 324° |
| 2026-04-24 11:33 | 44.64565 | 28.52491 | 33925 ft | 414 kts | 324° |
| 2026-04-24 11:34 | 44.68985 | 28.47412 | 33924 ft | 414 kts | 324° |
| 2026-04-24 11:34 | 44.73347 | 28.42110 | 33923 ft | 414 kts | 322° |
| 2026-04-24 11:35 | 44.77675 | 28.36775 | 33918 ft | 414 kts | 322° |
| 2026-04-24 11:35 | 44.82008 | 28.31516 | 33911 ft | 412 kts | 326° |
| 2026-04-24 11:36 | 44.86470 | 28.26520 | 33913 ft | 412 kts | 325° |
| 2026-04-24 11:36 | 44.90962 | 28.21533 | 33916 ft | 411 kts | 324° |
| 2026-04-24 11:37 | 44.95443 | 28.16571 | 33914 ft | 411 kts | 323° |
| 2026-04-24 11:37 | 44.99919 | 28.11621 | 33907 ft | 411 kts | 322° |
| 2026-04-24 11:38 | 45.04390 | 28.06639 | 33902 ft | 410 kts | 322° |
| 2026-04-24 11:38 | 45.08793 | 28.01649 | 33900 ft | 409 kts | 322° |
| 2026-04-24 11:39 | 45.13155 | 27.96537 | 33793 ft | 410 kts | 322° |
| 2026-04-24 11:39 | 45.15407 | 27.94115 | 33578 ft | 402 kts | 334° |
| 2026-04-24 11:39 | 45.17971 | 27.92668 | 33236 ft | 395 kts | 348° |
| 2026-04-24 11:40 | 45.20654 | 27.92211 | 32855 ft | 389 kts | 0° |
| 2026-04-24 11:40 | 45.23321 | 27.92377 | 32480 ft | 384 kts | 2° |
| 2026-04-24 11:40 | 45.25950 | 27.92562 | 32101 ft | 379 kts | 2° |
| 2026-04-24 11:40 | 45.28556 | 27.92788 | 31719 ft | 375 kts | 3° |
| 2026-04-24 11:41 | 45.31148 | 27.93039 | 31290 ft | 371 kts | 4° |
| 2026-04-24 11:41 | 45.33686 | 27.93615 | 30849 ft | 370 kts | 12° |
| 2026-04-24 11:41 | 45.36228 | 27.94179 | 30423 ft | 366 kts | 5° |
| 2026-04-24 11:41 | 45.38720 | 27.94686 | 30021 ft | 364 kts | 7° |
| 2026-04-24 11:42 | 45.41242 | 27.94944 | 29597 ft | 361 kts | 1° |
| 2026-04-24 11:42 | 45.43725 | 27.95243 | 29172 ft | 360 kts | 5° |
| 2026-04-24 11:42 | 45.46201 | 27.95618 | 28746 ft | 358 kts | 5° |
| 2026-04-24 11:42 | 45.48636 | 27.96050 | 28320 ft | 351 kts | 8° |
| 2026-04-24 11:43 | 45.50987 | 27.96722 | 27879 ft | 346 kts | 8° |
| 2026-04-24 11:43 | 45.53352 | 27.97368 | 27423 ft | 343 kts | 7° |
| 2026-04-24 11:43 | 45.55714 | 27.97858 | 26971 ft | 344 kts | 8° |
| 2026-04-24 11:43 | 45.58065 | 27.98550 | 26523 ft | 343 kts | 8° |
| 2026-04-24 11:44 | 45.60400 | 27.99085 | 26076 ft | 341 kts | 5° |
| 2026-04-24 11:44 | 45.62713 | 27.99711 | 25630 ft | 341 kts | 8° |
| 2026-04-24 11:44 | 45.65066 | 28.00307 | 25165 ft | 339 kts | 4° |
| 2026-04-24 11:44 | 45.67368 | 28.00868 | 24772 ft | 339 kts | 8° |
| 2026-04-24 11:45 | 45.69655 | 28.01506 | 24443 ft | 337 kts | 4° |
| 2026-04-24 11:45 | 45.71980 | 28.02018 | 24116 ft | 340 kts | 7° |
| 2026-04-24 11:45 | 45.74305 | 28.02699 | 23793 ft | 340 kts | 5° |
| 2026-04-24 11:45 | 45.76621 | 28.03184 | 23523 ft | 340 kts | 6° |
| 2026-04-24 11:46 | 45.78942 | 28.03873 | 23298 ft | 340 kts | 6° |
| 2026-04-24 11:46 | 45.81287 | 28.04368 | 23076 ft | 339 kts | 5° |
| 2026-04-24 11:46 | 45.83599 | 28.05039 | 22857 ft | 339 kts | 6° |
| 2026-04-24 11:46 | 45.85909 | 28.05572 | 22637 ft | 336 kts | 3° |
| 2026-04-24 11:47 | 45.88189 | 28.06184 | 22429 ft | 337 kts | 6° |
| 2026-04-24 11:47 | 45.90487 | 28.06834 | 22221 ft | 336 kts | 6° |
| 2026-04-24 11:47 | 45.92768 | 28.07485 | 22013 ft | 335 kts | 6° |
| 2026-04-24 11:47 | 45.95039 | 28.08130 | 21806 ft | 334 kts | 6° |
| 2026-04-24 11:48 | 45.97329 | 28.08780 | 21595 ft | 333 kts | 6° |
| 2026-04-24 11:48 | 45.99596 | 28.09424 | 21357 ft | 333 kts | 6° |
| 2026-04-24 11:48 | 46.01844 | 28.10063 | 21095 ft | 332 kts | 6° |
| 2026-04-24 11:48 | 46.04087 | 28.10701 | 20831 ft | 330 kts | 6° |
| 2026-04-24 11:49 | 46.06343 | 28.11343 | 20559 ft | 328 kts | 6° |
| 2026-04-24 11:49 | 46.08566 | 28.12001 | 20288 ft | 328 kts | 7° |
| 2026-04-24 11:49 | 46.10812 | 28.12617 | 20006 ft | 325 kts | 4° |
| 2026-04-24 11:49 | 46.13031 | 28.13091 | 19696 ft | 323 kts | 3° |
| 2026-04-24 11:50 | 46.15239 | 28.13528 | 19381 ft | 321 kts | 2° |
| 2026-04-24 11:50 | 46.17456 | 28.14078 | 19060 ft | 321 kts | 7° |
| 2026-04-24 11:50 | 46.19619 | 28.14881 | 18740 ft | 325 kts | 17° |
| 2026-04-24 11:50 | 46.21556 | 28.16610 | 18420 ft | 333 kts | 34° |
| 2026-04-24 11:51 | 46.23105 | 28.19045 | 18090 ft | 332 kts | 43° |
| 2026-04-24 11:51 | 46.24570 | 28.21558 | 17742 ft | 324 kts | 43° |
| 2026-04-24 11:51 | 46.25991 | 28.24074 | 17381 ft | 318 kts | 43° |
| 2026-04-24 11:51 | 46.27272 | 28.26642 | 17019 ft | 316 kts | 48° |
| 2026-04-24 11:52 | 46.28500 | 28.29248 | 16687 ft | 309 kts | 47° |
| 2026-04-24 11:52 | 46.29687 | 28.31768 | 16360 ft | 304 kts | 47° |
| 2026-04-24 11:52 | 46.30863 | 28.34260 | 16024 ft | 299 kts | 47° |
| 2026-04-24 11:52 | 46.32035 | 28.36744 | 15659 ft | 296 kts | 47° |
| 2026-04-24 11:53 | 46.33193 | 28.39196 | 15270 ft | 296 kts | 47° |
| 2026-04-24 11:53 | 46.34344 | 28.41632 | 14887 ft | 294 kts | 47° |
| 2026-04-24 11:53 | 46.35495 | 28.44072 | 14498 ft | 293 kts | 47° |
| 2026-04-24 11:53 | 46.36633 | 28.46483 | 14111 ft | 289 kts | 47° |
| 2026-04-24 11:54 | 46.37753 | 28.48858 | 13718 ft | 285 kts | 47° |
| 2026-04-24 11:54 | 46.38859 | 28.51204 | 13323 ft | 282 kts | 47° |
| 2026-04-24 11:54 | 46.39961 | 28.53541 | 12960 ft | 280 kts | 47° |
| 2026-04-24 11:54 | 46.41051 | 28.55846 | 12625 ft | 280 kts | 48° |
| 2026-04-24 11:55 | 46.42144 | 28.58164 | 12356 ft | 279 kts | 48° |
| 2026-04-24 11:55 | 46.43240 | 28.60491 | 12106 ft | 279 kts | 48° |
| 2026-04-24 11:55 | 46.44345 | 28.62784 | 11832 ft | 279 kts | 45° |
| 2026-04-24 11:55 | 46.45483 | 28.65096 | 11541 ft | 279 kts | 49° |
| 2026-04-24 11:56 | 46.46565 | 28.67403 | 11247 ft | 278 kts | 49° |
| 2026-04-24 11:56 | 46.47652 | 28.69721 | 10952 ft | 277 kts | 49° |
| 2026-04-24 11:56 | 46.48735 | 28.72017 | 10707 ft | 276 kts | 49° |
| 2026-04-24 11:56 | 46.49836 | 28.74318 | 10459 ft | 274 kts | 46° |
| 2026-04-24 11:57 | 46.50940 | 28.76534 | 10193 ft | 276 kts | 50° |
| 2026-04-24 11:57 | 46.52010 | 28.78831 | 9907 ft | 274 kts | 49° |
| 2026-04-24 11:57 | 46.53086 | 28.81114 | 9622 ft | 273 kts | 49° |
| 2026-04-24 11:57 | 46.54153 | 28.83382 | 9337 ft | 272 kts | 49° |
| 2026-04-24 11:58 | 46.55270 | 28.85570 | 9052 ft | 270 kts | 48° |
| 2026-04-24 11:58 | 46.56320 | 28.87820 | 8770 ft | 271 kts | 49° |
| 2026-04-24 11:58 | 46.57378 | 28.90057 | 8492 ft | 270 kts | 50° |
| 2026-04-24 11:58 | 46.58439 | 28.92329 | 8210 ft | 269 kts | 50° |
| 2026-04-24 11:59 | 46.59517 | 28.94489 | 7934 ft | 266 kts | 46° |
| 2026-04-24 11:59 | 46.60575 | 28.96694 | 7657 ft | 267 kts | 50° |
| 2026-04-24 11:59 | 46.61624 | 28.98923 | 7381 ft | 265 kts | 50° |
| 2026-04-24 11:59 | 46.62649 | 29.01124 | 7112 ft | 264 kts | 49° |
| 2026-04-24 12:00 | 46.63754 | 29.03244 | 6835 ft | 263 kts | 50° |
| 2026-04-24 12:00 | 46.64766 | 29.05450 | 6564 ft | 262 kts | 50° |
| 2026-04-24 12:00 | 46.65790 | 29.07618 | 6293 ft | 260 kts | 48° |
| 2026-04-24 12:00 | 46.66907 | 29.09666 | 6021 ft | 259 kts | 49° |
| 2026-04-24 12:01 | 46.67945 | 29.11807 | 5749 ft | 256 kts | 43° |
| 2026-04-24 12:01 | 46.69156 | 29.13699 | 5478 ft | 256 kts | 48° |
| 2026-04-24 12:01 | 46.70143 | 29.15865 | 5216 ft | 257 kts | 51° |
| 2026-04-24 12:01 | 46.71149 | 29.17993 | 4953 ft | 256 kts | 51° |
| 2026-04-24 12:02 | 46.72140 | 29.20132 | 4690 ft | 255 kts | 51° |
| 2026-04-24 12:02 | 46.73116 | 29.22242 | 4433 ft | 254 kts | 51° |
| 2026-04-24 12:02 | 46.74103 | 29.24388 | 4171 ft | 253 kts | 51° |
| 2026-04-24 12:02 | 46.75076 | 29.26492 | 3910 ft | 248 kts | 51° |
| 2026-04-24 12:03 | 46.76021 | 29.28543 | 3689 ft | 239 kts | 51° |
| 2026-04-24 12:03 | 46.76925 | 29.30523 | 3493 ft | 230 kts | 51° |
| 2026-04-24 12:03 | 46.77794 | 29.32403 | 3286 ft | 222 kts | 51° |
| 2026-04-24 12:03 | 46.78797 | 29.34040 | 3037 ft | 208 kts | 27° |
| 2026-04-24 12:04 | 46.80107 | 29.34677 | 2801 ft | 200 kts | 359° |
| 2026-04-24 12:04 | 46.81501 | 29.34627 | 2593 ft | 197 kts | 354° |
| 2026-04-24 12:04 | 46.82834 | 29.34536 | 2642 ft | 189 kts | 353° |
| 2026-04-24 12:04 | 46.84153 | 29.34433 | 2654 ft | 190 kts | 353° |
| 2026-04-24 12:05 | 46.85452 | 29.34156 | 2650 ft | 189 kts | 342° |
| 2026-04-24 12:05 | 46.86730 | 29.33685 | 2646 ft | 189 kts | 343° |
| 2026-04-24 12:05 | 46.88006 | 29.33242 | 2637 ft | 187 kts | 343° |
| 2026-04-24 12:05 | 46.89258 | 29.32725 | 2642 ft | 187 kts | 332° |
| 2026-04-24 12:06 | 46.90381 | 29.31763 | 2655 ft | 183 kts | 328° |
| 2026-04-24 12:06 | 46.91452 | 29.30865 | 2585 ft | 177 kts | 328° |
| 2026-04-24 12:06 | 46.92509 | 29.29959 | 2424 ft | 176 kts | 328° |
| 2026-04-24 12:06 | 46.93437 | 29.28804 | 2207 ft | 176 kts | 301° |
| 2026-04-24 12:07 | 46.93749 | 29.27104 | 1846 ft | 173 kts | 270° |
| 2026-04-24 12:07 | 46.93485 | 29.25431 | 1644 ft | 166 kts | 258° |
| 2026-04-24 12:07 | 46.93099 | 29.23826 | 1757 ft | 169 kts | 251° |
| 2026-04-24 12:07 | 46.92542 | 29.22356 | 2108 ft | 164 kts | 246° |
| 2026-04-24 12:08 | 46.92179 | 29.20816 | 2360 ft | 159 kts | 270° |
| 2026-04-24 12:08 | 46.92216 | 29.19217 | 2528 ft | 159 kts | 273° |
| 2026-04-24 12:08 | 46.92229 | 29.17593 | 2643 ft | 153 kts | 279° |
| 2026-04-24 12:08 | 46.92359 | 29.16071 | 2560 ft | 152 kts | 282° |
| 2026-04-24 12:09 | 46.92501 | 29.14571 | 2558 ft | 149 kts | 282° |
| 2026-04-24 12:09 | 46.92651 | 29.13043 | 2385 ft | 153 kts | 282° |
| 2026-04-24 12:09 | 46.92786 | 29.11523 | 2329 ft | 148 kts | 279° |
| 2026-04-24 12:09 | 46.92842 | 29.10008 | 2158 ft | 150 kts | 277° |
| 2026-04-24 12:10 | 46.92924 | 29.08509 | 1978 ft | 146 kts | 279° |
| 2026-04-24 12:10 | 46.92941 | 29.07040 | 1711 ft | 142 kts | 273° |
| 2026-04-24 12:10 | 46.92895 | 29.05633 | 1500 ft | 140 kts | 273° |
| 2026-04-24 12:11 | 46.92863 | 29.02742 | 1243 ft | 146 kts | 274° |
| 2026-04-24 12:11 | 46.92864 | 29.01206 | 1061 ft | 152 kts | 275° |
| 2026-04-24 12:11 | 46.92881 | 28.99650 | 902 ft | 153 kts | 275° |
| 2026-04-24 12:11 | 46.92862 | 28.98116 | 722 ft | 150 kts | 270° |
| 2026-04-24 12:12 | 46.92826 | 28.96583 | 494 ft | 149 kts | 272° |
| 2026-04-24 12:12 | 46.92806 | 28.94570 | 294 ft | 143 kts | 271° |
| 2026-04-24 12:12 | 46.92794 | 28.93678 | 312 ft | 122 kts | 265° |
| 2026-04-24 12:12 | 46.92773 | 28.92773 | 337 ft | 64 kts | 268° |
| 2026-04-24 12:13 | 46.92763 | 28.92290 | 351 ft | 30 kts | 266° |
| 2026-04-24 12:13 | 46.92760 | 28.92080 | 361 ft | 10 kts | 274° |
| 2026-04-24 12:13 | 46.92798 | 28.92005 | 364 ft | 9 kts | 341° |
| 2026-04-24 12:13 | 46.92867 | 28.91991 | 365 ft | 10 kts | 356° |
| 2026-04-24 12:14 | 46.92937 | 28.91988 | 365 ft | 10 kts | 358° |
| 2026-04-24 12:14 | 46.93013 | 28.91984 | 365 ft | 11 kts | 358° |
| 2026-04-24 12:14 | 46.93103 | 28.91987 | 365 ft | 13 kts | 6° |
| 2026-04-24 12:14 | 46.93177 | 28.92010 | 364 ft | 11 kts | 14° |
| 2026-04-24 12:15 | 46.93253 | 28.92057 | 361 ft | 8 kts | 58° |
| 2026-04-24 12:15 | 46.93258 | 28.92175 | 354 ft | 16 kts | 95° |
| 2026-04-24 12:15 | 46.93249 | 28.92322 | 345 ft | 1 kts | 96° |
| 2026-04-24 12:15 | 46.93247 | 28.92355 | 344 ft | 7 kts | 95° |
| 2026-04-24 12:16 | 46.93240 | 28.92460 | 340 ft | 13 kts | 98° |
| 2026-04-24 12:16 | 46.93225 | 28.92622 | 336 ft | 17 kts | 96° |
| 2026-04-24 12:16 | 46.93211 | 28.92795 | 332 ft | 18 kts | 97° |
| 2026-04-24 12:16 | 46.93191 | 28.93003 | 328 ft | 22 kts | 98° |
| 2026-04-24 12:17 | 46.93173 | 28.93186 | 325 ft | 13 kts | 96° |
| 2026-04-24 12:17 | 46.93162 | 28.93337 | 322 ft | 16 kts | 96° |
| 2026-04-24 12:17 | 46.93148 | 28.93483 | 319 ft | 11 kts | 97° |
| 2026-04-24 12:17 | 46.93142 | 28.93575 | 316 ft | 6 kts | 94° |
| 2026-04-24 12:18 | 46.93174 | 28.93623 | 313 ft | 6 kts | 9° |
| 2026-04-24 12:18 | 46.93222 | 28.93632 | 313 ft | 6 kts | 7° |
| 2026-04-24 12:18 | 46.93255 | 28.93640 | 312 ft | 4 kts | 23° |
| 2026-04-24 12:18 | 46.93262 | 28.93697 | 311 ft | 8 kts | 96° |
| 2026-04-24 12:19 | 46.93259 | 28.93723 | 311 ft | 0 kts | 97° |